createdAt,value
2023-04-29T00:04:51.920Z,9.68
2023-04-29T00:09:54.232Z,11.15
2023-04-29T00:14:56.499Z,10.02
2023-04-29T00:19:58.484Z,10.73
2023-04-29T00:25:00.521Z,9.80
2023-04-29T00:30:02.621Z,11.55
2023-04-29T00:35:04.815Z,9.93
2023-04-29T00:40:08.911Z,10.48
2023-04-29T00:45:14.436Z,7.95
2023-04-29T00:50:16.509Z,11.60
2023-04-29T00:55:18.919Z,9.98
2023-04-29T01:00:21.560Z,10.95
2023-04-29T01:05:26.418Z,10.50
2023-04-29T01:10:32.392Z,9.60
2023-04-29T01:15:54.900Z,9.18
2023-04-29T01:20:59.361Z,7.75
2023-04-29T01:26:01.322Z,7.85
2023-04-29T01:31:37.066Z,9.93
2023-04-29T01:36:50.520Z,8.85
2023-04-29T01:42:01.338Z,10.27
2023-04-29T01:47:03.651Z,10.75
2023-04-29T01:57:08.083Z,8.88
2023-04-29T02:07:29.021Z,9.98
2023-04-29T02:12:31.046Z,9.40
2023-04-29T02:17:34.792Z,8.55
2023-04-29T02:22:37.068Z,9.52
2023-04-29T02:32:40.843Z,9.00
2023-04-29T02:37:42.850Z,8.75
2023-04-29T02:42:44.847Z,9.40
2023-04-29T02:47:46.813Z,7.70
2023-04-29T02:52:48.779Z,9.43
2023-04-29T02:57:50.737Z,8.75
2023-04-29T03:02:52.833Z,9.40
2023-04-29T03:07:55.013Z,9.80
2023-04-29T03:12:56.994Z,8.93
2023-04-29T03:18:02.082Z,9.98
2023-04-29T03:23:04.181Z,9.98
2023-04-29T03:28:06.198Z,9.05
2023-04-29T03:33:08.343Z,9.73
2023-04-29T03:38:10.443Z,7.68
2023-04-29T03:43:14.217Z,9.15
2023-04-29T03:48:16.204Z,10.02
2023-04-29T03:53:18.931Z,10.27
2023-04-29T03:58:20.985Z,10.20
2023-04-29T04:03:24.203Z,8.20
2023-04-29T04:08:26.363Z,8.48
2023-04-29T04:13:28.487Z,7.68
2023-04-29T04:18:30.682Z,9.02
2023-04-29T04:23:32.694Z,8.98
2023-04-29T04:28:34.729Z,8.10
2023-04-29T04:33:36.850Z,8.73
2023-04-29T04:38:38.841Z,8.88
2023-04-29T04:43:41.772Z,7.13
2023-04-29T04:48:43.875Z,8.40
2023-04-29T04:53:46.013Z,7.90
2023-04-29T04:58:48.022Z,8.50
2023-04-29T05:03:50.225Z,9.43
2023-04-29T05:08:52.437Z,4.95
2023-04-29T05:18:56.362Z,8.52
2023-04-29T05:23:58.346Z,8.20
2023-04-29T05:29:00.652Z,8.35
2023-04-29T05:34:02.834Z,8.07
2023-04-29T05:39:04.933Z,8.05
2023-04-29T05:49:11.804Z,8.02
2023-04-29T05:54:14.131Z,6.93
2023-04-29T05:59:16.306Z,5.95
2023-04-29T06:04:18.514Z,8.02
2023-04-29T06:09:27.486Z,7.00
2023-04-29T06:14:31.406Z,6.80
2023-04-29T06:19:36.101Z,7.72
2023-04-29T06:24:38.181Z,7.90
2023-04-29T06:34:42.275Z,7.53
2023-04-29T06:39:44.271Z,6.30
2023-04-29T06:49:48.542Z,7.50
2023-04-29T06:54:50.721Z,5.40
2023-04-29T06:59:53.125Z,7.00
2023-04-29T07:04:58.730Z,6.35
2023-04-29T07:10:01.581Z,4.93
2023-04-29T07:15:03.984Z,6.45
2023-04-29T07:20:07.124Z,7.28
2023-04-29T07:25:10.104Z,6.43
2023-04-29T07:30:12.371Z,7.15
2023-04-29T07:35:14.556Z,6.32
2023-04-29T07:40:16.970Z,7.40
2023-04-29T07:45:19.370Z,6.65
2023-04-29T07:50:21.918Z,6.28
2023-04-29T07:55:24.095Z,6.20
2023-04-29T08:00:29.333Z,5.85
2023-04-29T08:05:32.241Z,6.32
2023-04-29T08:10:41.307Z,6.65
2023-04-29T08:15:43.527Z,5.93
2023-04-29T08:20:49.565Z,6.18
2023-04-29T08:25:52.604Z,7.32
2023-04-29T08:30:54.688Z,5.82
2023-04-29T08:36:00.735Z,4.95
2023-04-29T08:41:02.795Z,6.03
2023-04-29T08:46:05.574Z,5.78
2023-04-29T08:51:08.542Z,5.47
2023-04-29T08:56:17.758Z,5.45
2023-04-29T09:01:23.188Z,5.80
2023-04-29T09:06:34.193Z,6.85
2023-04-29T09:11:38.319Z,7.05
2023-04-29T09:16:41.473Z,6.50
2023-04-29T09:21:59.076Z,5.13
2023-04-29T09:27:03.610Z,6.35
2023-04-29T09:32:19.984Z,5.18
2023-04-29T09:37:28.106Z,6.35
2023-04-29T09:42:30.267Z,3.83
2023-04-29T09:47:33.532Z,6.18
2023-04-29T09:52:45.163Z,4.22
2023-04-29T09:57:47.540Z,6.75
2023-04-29T10:02:51.376Z,5.50
2023-04-29T10:07:54.808Z,4.90
2023-04-29T10:12:58.573Z,5.60
2023-04-29T10:18:12.845Z,6.65
2023-04-29T10:23:16.270Z,5.10
2023-04-29T10:28:20.693Z,6.03
2023-04-29T10:33:23.617Z,8.02
2023-04-29T10:38:42.988Z,5.45
2023-04-29T10:43:47.178Z,6.85
2023-04-29T10:48:55.686Z,6.95
2023-04-29T10:54:14.885Z,6.07
2023-04-29T10:59:21.118Z,4.80
2023-04-29T11:04:23.769Z,4.68
2023-04-29T11:09:28.482Z,5.03
2023-04-29T11:14:41.582Z,6.57
2023-04-29T11:19:51.425Z,3.55
2023-04-29T11:25:06.506Z,5.15
2023-04-29T11:30:09.308Z,5.13
2023-04-29T11:35:12.850Z,3.42
2023-04-29T11:40:15.991Z,6.30
2023-04-29T11:45:19.294Z,6.15
2023-04-29T11:50:21.463Z,4.68
2023-04-29T11:55:23.457Z,5.10
2023-04-29T12:00:25.661Z,4.75
2023-04-29T12:05:28.087Z,5.53
2023-04-29T12:10:31.320Z,5.47
2023-04-29T12:15:33.694Z,4.10
2023-04-29T12:20:36.356Z,3.15
2023-04-29T12:25:38.560Z,3.28
2023-04-29T12:30:40.889Z,6.00
2023-04-29T12:35:42.888Z,4.53
2023-04-29T12:40:45.807Z,4.85
2023-04-29T12:45:47.905Z,5.20
2023-04-29T12:50:53.612Z,4.63
2023-04-29T12:55:55.893Z,4.35
2023-04-29T13:00:59.235Z,3.65
2023-04-29T13:06:01.802Z,4.32
2023-04-29T13:11:04.499Z,4.03
2023-04-29T13:16:08.370Z,4.50
2023-04-29T13:21:11.292Z,2.85
2023-04-29T13:26:17.138Z,3.83
2023-04-29T13:31:19.376Z,2.72
2023-04-29T13:36:22.058Z,3.67
2023-04-29T13:41:26.150Z,2.63
2023-04-29T13:46:31.496Z,6.70
2023-04-29T13:52:16.860Z,8.90
2023-04-29T13:57:47.485Z,4.00
2023-04-29T14:02:24.176Z,4.07
2023-04-29T14:07:27.421Z,8.25
2023-04-29T14:12:30.424Z,6.78
2023-04-29T14:17:32.805Z,4.32
2023-04-29T14:22:42.756Z,5.00
2023-04-29T14:27:52.859Z,5.93
2023-04-29T14:32:55.134Z,5.70
2023-04-29T14:37:57.486Z,5.45
2023-04-29T14:43:02.817Z,4.03
2023-04-29T14:48:06.605Z,5.10
2023-04-29T14:53:11.581Z,4.68
2023-04-29T14:58:14.461Z,30.55
2023-04-29T15:03:22.107Z,8.75
2023-04-29T15:08:25.620Z,5.40
2023-04-29T15:13:29.396Z,6.75
2023-04-29T15:18:32.336Z,6.03
2023-04-29T15:23:34.878Z,6.70
2023-04-29T15:28:37.093Z,5.63
2023-04-29T15:33:39.317Z,6.28
2023-04-29T15:38:41.774Z,6.82
2023-04-29T15:43:43.754Z,4.43
2023-04-29T15:48:46.362Z,7.70
2023-04-29T15:53:49.712Z,6.28
2023-04-29T15:58:55.882Z,6.93
2023-04-29T16:03:58.349Z,6.72
2023-04-29T16:09:01.473Z,5.60
2023-04-29T16:14:04.799Z,4.45
2023-04-29T16:19:11.369Z,7.70
2023-04-29T16:24:18.465Z,7.78
2023-04-29T16:29:29.364Z,13.00
2023-04-29T16:34:32.390Z,8.00
2023-04-29T16:39:35.798Z,7.80
2023-04-29T16:44:38.067Z,7.30
2023-04-29T16:49:41.340Z,8.10
2023-04-29T16:54:54.439Z,6.53
2023-04-29T16:59:57.643Z,6.60
2023-04-29T17:04:59.934Z,8.60
2023-04-29T17:10:02.215Z,9.75
2023-04-29T17:15:06.018Z,9.77
2023-04-29T17:20:09.001Z,10.93
2023-04-29T17:25:15.699Z,10.82
2023-04-29T17:30:18.333Z,11.82
2023-04-29T17:35:21.500Z,10.10
2023-04-29T17:40:25.317Z,8.82
2023-04-29T17:45:29.154Z,11.25
2023-04-29T17:50:34.857Z,9.63
2023-04-29T17:56:00.178Z,9.60
2023-04-29T18:01:07.800Z,10.35
2023-04-29T18:06:12.456Z,9.38
2023-04-29T18:11:15.343Z,9.02
2023-04-29T18:16:19.851Z,9.52
2023-04-29T18:21:28.179Z,10.68
2023-04-29T18:26:30.727Z,12.10
2023-04-29T18:31:33.792Z,11.38
2023-04-29T18:36:36.439Z,16.65
2023-04-29T18:41:38.828Z,15.05
2023-04-29T18:46:42.239Z,15.73
2023-04-29T18:51:48.491Z,14.85
2023-04-29T18:56:52.731Z,13.90
2023-04-29T19:02:01.450Z,12.90
2023-04-29T19:07:07.610Z,12.07
2023-04-29T19:12:11.354Z,12.50
2023-04-29T19:17:14.456Z,11.57
2023-04-29T19:22:18.117Z,11.70
2023-04-29T19:27:20.260Z,14.48
2023-04-29T19:32:22.973Z,15.98
2023-04-29T19:37:26.570Z,9.10
2023-04-29T19:42:28.986Z,4.25
2023-04-29T19:47:34.391Z,4.22
2023-04-29T19:52:37.115Z,4.88
2023-04-29T19:57:42.388Z,4.60
2023-04-29T20:02:45.654Z,4.30
2023-04-29T20:07:54.568Z,5.45
2023-04-29T20:12:56.970Z,5.18
2023-04-29T20:17:59.781Z,6.68
2023-04-29T20:23:02.377Z,9.18
2023-04-29T20:28:05.259Z,5.88
2023-04-29T20:33:09.306Z,6.55
2023-04-29T20:38:11.568Z,7.57
2023-04-29T20:43:13.871Z,8.35
2023-04-29T20:48:16.335Z,9.10
2023-04-29T20:53:18.395Z,8.02
2023-04-29T20:58:20.445Z,8.07
2023-04-29T21:03:23.141Z,9.30
2023-04-29T21:08:25.675Z,9.40
2023-04-29T21:13:28.270Z,8.82
2023-04-29T21:18:31.251Z,8.18
2023-04-29T21:23:51.553Z,7.15
2023-04-29T21:29:02.772Z,7.47
2023-04-29T21:34:20.733Z,8.68
2023-04-29T21:39:52.565Z,9.60
2023-04-29T21:45:18.340Z,9.50
2023-04-29T21:50:49.714Z,10.48
2023-04-29T21:55:51.991Z,12.38
2023-04-29T22:01:03.436Z,12.90
2023-04-29T22:06:05.753Z,10.95
2023-04-29T22:11:07.801Z,9.40
2023-04-29T22:16:10.050Z,10.30
2023-04-29T22:21:12.350Z,11.77
2023-04-29T22:26:14.479Z,12.82
2023-04-29T22:31:16.521Z,14.73
2023-04-29T22:36:19.172Z,15.25
2023-04-29T22:41:22.006Z,15.30
2023-04-29T22:46:25.133Z,16.80
2023-04-29T22:51:27.167Z,15.27
2023-04-29T22:56:29.295Z,17.52
2023-04-29T23:01:31.392Z,16.83
2023-04-29T23:06:36.402Z,19.23
2023-04-29T23:11:38.967Z,16.80
2023-04-29T23:16:41.117Z,16.95
2023-04-29T23:21:43.124Z,13.77
2023-04-29T23:26:45.144Z,16.83
2023-04-29T23:31:47.227Z,14.88
2023-04-29T23:36:49.426Z,14.98
2023-04-29T23:41:52.082Z,15.45
2023-04-29T23:46:54.310Z,12.55
2023-04-29T23:51:56.399Z,12.98
2023-04-29T23:56:58.481Z,14.15
